Time;durP1;ratioP1;P1;durP2;ratioP2;P2;SDS_P1;SDS_P2;PMS_P1;PMS_P2;Temp;Humidity;BMP_temperature;BMP_pressure;BME280_temperature;BME280_humidity;BME280_pressure;Samples;Min_cycle;Max_cycle;Signal;HPM_P1;HPM_P2
2021/12/05 00:22:51;;;;;;;4.55;2.30;;;4.80;99.90;;;;;;5022148;28;20266;-60
2021/12/05 00:25:25;;;;;;;7.40;2.10;;;4.80;99.90;;;;;;5032238;28;20201;-60
2021/12/05 00:28:08;;;;;;;8.10;2.10;;;4.80;99.90;;;;;;5028656;28;20220;-59
2021/12/05 00:31:01;;;;;;;7.00;2.38;;;4.70;99.90;;;;;;5018249;28;20248;-60
2021/12/05 00:33:50;;;;;;;6.88;2.85;;;4.70;99.90;;;;;;5031621;28;20209;-60
2021/12/05 00:42:06;;;;;;;8.20;2.30;;;4.70;99.90;;;;;;5030203;28;20185;-60
2021/12/05 00:47:43;;;;;;;8.30;2.78;;;4.70;99.90;;;;;;5025818;28;20216;-59
2021/12/05 00:50:49;;;;;;;6.43;3.85;;;4.80;99.90;;;;;;5049827;28;20554;-59
2021/12/05 00:56:23;;;;;;;7.40;2.33;;;4.70;99.90;;;;;;5039381;28;20203;-60
2021/12/05 01:02:01;;;;;;;6.30;3.33;;;4.60;99.90;;;;;;5049755;28;20559;-59
2021/12/05 01:04:51;;;;;;;4.97;2.30;;;4.60;99.90;;;;;;5050287;28;20217;-60
2021/12/05 01:07:37;;;;;;;8.05;1.95;;;4.50;99.90;;;;;;5046247;28;20221;-59
2021/12/05 01:10:15;;;;;;;6.00;2.10;;;4.50;99.90;;;;;;5049106;28;20203;-60
2021/12/05 01:13:29;;;;;;;4.82;1.98;;;4.40;99.90;;;;;;5045952;28;20209;-60
2021/12/05 01:16:03;;;;;;;10.63;2.55;;;4.40;99.90;;;;;;5035867;28;20215;-60
2021/12/05 01:18:35;;;;;;;5.63;1.88;;;4.30;99.90;;;;;;5035694;28;20708;-59
2021/12/05 01:21:08;;;;;;;10.38;2.20;;;4.30;99.90;;;;;;5051655;28;20196;-60
2021/12/05 01:23:47;;;;;;;6.53;2.55;;;4.30;99.90;;;;;;5048042;28;20217;-59
2021/12/05 01:26:20;;;;;;;6.97;2.00;;;4.30;99.90;;;;;;5042623;28;20577;-60
2021/12/05 01:31:51;;;;;;;4.18;2.20;;;4.30;99.90;;;;;;5035337;28;20893;-59
2021/12/05 01:34:43;;;;;;;7.70;2.33;;;4.20;99.90;;;;;;5050693;28;20752;-59
2021/12/05 01:37:24;;;;;;;7.20;2.33;;;4.20;99.90;;;;;;5030285;28;20208;-60
2021/12/05 01:51:41;;;;;;;4.97;2.28;;;4.20;99.90;;;;;;5089530;28;20511;-59
2021/12/05 01:54:32;;;;;;;7.88;1.80;;;4.20;99.90;;;;;;5048251;28;20224;-59
2021/12/05 02:03:11;;;;;;;11.35;2.20;;;4.20;99.90;;;;;;5044251;28;20229;-60
2021/12/05 02:11:42;;;;;;;5.80;1.83;;;4.20;99.90;;;;;;5042941;28;20195;-59
2021/12/05 02:31:16;;;;;;;4.13;2.00;;;4.20;99.90;;;;;;5084985;28;20233;-58
2021/12/05 02:36:53;;;;;;;7.03;2.30;;;4.30;99.90;;;;;;5085298;28;20187;-62
2021/12/05 02:39:43;;;;;;;3.50;1.38;;;4.20;99.90;;;;;;5083913;28;20640;-62
2021/12/05 02:42:15;;;;;;;3.47;1.63;;;4.20;99.90;;;;;;5095283;27;20192;-62
2021/12/05 02:44:46;;;;;;;6.60;2.00;;;4.10;99.90;;;;;;5083521;28;20198;-62
2021/12/05 02:47:18;;;;;;;4.28;1.90;;;4.10;99.90;;;;;;5081496;28;20230;-62
2021/12/05 02:49:50;;;;;;;7.82;2.67;;;4.10;99.90;;;;;;5082086;28;20227;-62
2021/12/05 02:52:29;;;;;;;3.17;1.70;;;4.10;99.90;;;;;;5075806;28;20219;-62
2021/12/05 02:55:11;;;;;;;4.60;1.50;;;4.10;99.90;;;;;;5103442;28;20187;-61
2021/12/05 02:57:53;;;;;;;7.05;2.10;;;4.20;99.90;;;;;;5082912;28;20298;-62
2021/12/05 03:00:35;;;;;;;15.00;2.45;;;4.20;99.90;;;;;;5074936;28;20569;-62
2021/12/05 03:03:16;;;;;;;10.02;2.35;;;4.20;99.90;;;;;;5072699;28;20219;-62
2021/12/05 03:05:50;;;;;;;5.85;1.70;;;4.20;99.90;;;;;;5062507;28;20188;-63
2021/12/05 03:08:19;;;;;;;4.43;1.98;;;4.30;99.90;;;;;;5061172;28;20231;-62
2021/12/05 03:10:52;;;;;;;7.43;1.55;;;4.30;99.90;;;;;;5061856;28;20273;-62
2021/12/05 03:13:21;;;;;;;5.65;2.20;;;4.30;99.90;;;;;;5061106;28;20632;-63
2021/12/05 03:16:10;;;;;;;5.72;1.55;;;4.30;99.90;;;;;;5064923;28;20246;-63
2021/12/05 03:18:57;;;;;;;6.78;2.00;;;4.30;99.90;;;;;;5056689;28;20596;-62
2021/12/05 03:21:25;;;;;;;4.38;1.30;;;4.30;99.90;;;;;;5061963;28;20230;-62
2021/12/05 03:23:55;;;;;;;5.00;1.20;;;4.20;99.90;;;;;;5054915;28;20586;-62
2021/12/05 03:26:27;;;;;;;9.35;1.80;;;4.20;99.90;;;;;;5070830;28;20196;-62
2021/12/05 03:28:57;;;;;;;5.57;2.25;;;4.30;99.90;;;;;;5060951;28;20307;-62
2021/12/05 03:31:28;;;;;;;9.18;1.83;;;4.30;99.90;;;;;;5066306;28;20237;-61
2021/12/05 03:33:57;;;;;;;2.78;1.48;;;4.30;99.90;;;;;;5066359;28;20590;-62
2021/12/05 03:36:27;;;;;;;4.93;1.92;;;4.20;99.90;;;;;;5055157;28;20227;-61
2021/12/05 03:38:57;;;;;;;9.25;2.10;;;4.20;99.90;;;;;;5058882;28;20299;-62
2021/12/05 03:41:26;;;;;;;6.78;1.92;;;4.20;99.90;;;;;;5064912;28;20187;-62
2021/12/05 03:43:57;;;;;;;1.90;0.90;;;4.20;99.90;;;;;;5054830;28;20226;-62
2021/12/05 03:46:27;;;;;;;6.35;1.58;;;4.20;99.90;;;;;;5054960;28;20203;-62
2021/12/05 03:48:58;;;;;;;2.60;1.30;;;4.10;99.90;;;;;;5057856;28;20228;-62
2021/12/05 03:51:31;;;;;;;6.05;1.80;;;4.10;99.90;;;;;;5067959;28;20216;-62
2021/12/05 03:54:03;;;;;;;6.60;2.42;;;4.10;99.90;;;;;;5055390;28;20647;-62
2021/12/05 03:56:36;;;;;;;6.38;1.30;;;4.00;99.90;;;;;;5088935;28;20199;-62
2021/12/05 03:59:07;;;;;;;3.38;1.35;;;4.10;99.90;;;;;;5068244;28;20594;-62
2021/12/05 04:01:36;;;;;;;7.55;2.03;;;4.00;99.90;;;;;;5060128;28;20181;-61
2021/12/05 04:04:05;;;;;;;3.10;1.08;;;4.00;99.90;;;;;;5063076;28;20273;-62
2021/12/05 04:06:34;;;;;;;7.75;1.80;;;4.10;99.90;;;;;;5052223;28;20200;-62
2021/12/05 04:09:10;;;;;;;3.72;1.50;;;4.00;99.90;;;;;;5059748;28;20228;-62
2021/12/05 04:11:55;;;;;;;6.88;1.45;;;4.00;99.90;;;;;;5053458;28;20231;-61
2021/12/05 04:14:26;;;;;;;4.45;1.63;;;4.00;99.90;;;;;;5078962;28;20219;-62
2021/12/05 04:16:56;;;;;;;2.50;1.23;;;4.00;99.90;;;;;;5068058;28;20548;-62
2021/12/05 04:19:26;;;;;;;6.32;1.75;;;3.90;99.90;;;;;;5051750;28;20222;-62
2021/12/05 04:21:54;;;;;;;1.80;1.45;;;3.90;99.90;;;;;;5064806;28;20196;-62
2021/12/05 04:24:22;;;;;;;7.85;1.55;;;3.90;99.90;;;;;;5072165;28;20616;-62
2021/12/05 04:26:53;;;;;;;4.30;1.20;;;3.90;99.90;;;;;;5061142;28;20199;-62
2021/12/05 04:29:25;;;;;;;7.88;1.42;;;3.90;99.90;;;;;;5066217;28;20273;-62
2021/12/05 04:31:54;;;;;;;3.90;1.40;;;3.90;99.90;;;;;;5071503;28;20219;-62
2021/12/05 04:34:22;;;;;;;2.13;1.10;;;3.90;99.90;;;;;;5061430;28;20224;-62
2021/12/05 04:36:55;;;;;;;3.70;1.40;;;3.80;99.90;;;;;;5056262;28;20553;-61
2021/12/05 04:39:26;;;;;;;5.90;1.67;;;3.80;99.90;;;;;;5055465;28;20240;-63
2021/12/05 04:41:56;;;;;;;2.15;1.60;;;3.80;99.90;;;;;;5071433;28;20707;-62
2021/12/05 04:44:26;;;;;;;9.68;1.50;;;3.70;99.90;;;;;;5070391;28;20735;-62
2021/12/05 04:47:00;;;;;;;5.60;2.20;;;3.70;99.90;;;;;;5068830;28;20250;-63
2021/12/05 04:49:29;;;;;;;2.92;1.58;;;3.70;99.90;;;;;;5071304;28;20269;-61
2021/12/05 04:52:01;;;;;;;2.53;1.80;;;3.70;99.90;;;;;;5064520;28;20209;-61
2021/12/05 04:54:29;;;;;;;4.85;1.38;;;3.70;99.90;;;;;;5052107;28;20188;-62
2021/12/05 04:56:59;;;;;;;7.32;1.48;;;3.70;99.90;;;;;;5059332;28;20188;-62
2021/12/05 04:59:34;;;;;;;3.80;1.30;;;3.70;99.90;;;;;;5066531;28;20229;-62
2021/12/05 05:02:05;;;;;;;3.10;1.35;;;3.70;99.90;;;;;;5051772;28;20189;-62
2021/12/05 05:04:41;;;;;;;3.88;1.38;;;3.80;99.90;;;;;;5087452;28;20192;-62
2021/12/05 05:07:18;;;;;;;3.60;1.75;;;3.80;99.90;;;;;;5056391;28;20196;-62
2021/12/05 05:09:48;;;;;;;4.38;1.17;;;3.90;99.90;;;;;;5055810;28;20224;-62
2021/12/05 05:12:18;;;;;;;7.53;1.55;;;3.90;99.90;;;;;;5052179;28;20224;-62
2021/12/05 05:14:46;;;;;;;3.97;1.77;;;3.80;99.90;;;;;;5061851;28;20188;-62
2021/12/05 05:17:15;;;;;;;4.30;1.15;;;3.80;99.90;;;;;;5069934;28;20281;-61
2021/12/05 05:19:48;;;;;;;1.50;1.40;;;3.80;99.90;;;;;;5060575;28;20219;-61
2021/12/05 05:22:27;;;;;;;2.47;0.90;;;3.80;99.90;;;;;;5062034;28;20284;-62
2021/12/05 05:28:02;;;;;;;3.25;1.65;;;3.80;99.90;;;;;;5068927;28;20298;-62
2021/12/05 05:30:50;;;;;;;2.60;1.38;;;3.80;99.90;;;;;;5071163;28;20187;-62
2021/12/05 05:42:15;;;;;;;3.83;1.10;;;3.50;99.90;;;;;;5032538;28;20196;-62
2021/12/05 05:45:03;;;;;;;2.88;1.23;;;3.40;99.90;;;;;;5063643;28;20666;-61
2021/12/05 05:47:36;;;;;;;2.95;1.05;;;3.20;99.90;;;;;;5069631;28;20578;-62
2021/12/05 05:50:06;;;;;;;5.43;1.50;;;3.10;99.90;;;;;;5068241;28;20211;-62
2021/12/05 05:52:35;;;;;;;2.80;1.35;;;2.90;99.90;;;;;;5067463;28;20235;-62
2021/12/05 05:55:03;;;;;;;3.00;1.65;;;2.80;99.90;;;;;;5061940;28;20411;-61
2021/12/05 05:57:37;;;;;;;2.47;1.60;;;2.70;99.90;;;;;;5058868;28;20694;-61
2021/12/05 06:00:13;;;;;;;6.47;1.90;;;2.60;99.90;;;;;;5067216;28;20191;-61
2021/12/05 06:05:31;;;;;;;3.70;1.88;;;2.40;99.90;;;;;;5069387;28;20727;-62
2021/12/05 06:07:59;;;;;;;2.75;1.35;;;2.30;99.90;;;;;;5070823;28;20596;-61
2021/12/05 06:10:30;;;;;;;2.40;1.80;;;2.30;99.90;;;;;;5065079;28;20244;-62
2021/12/05 06:12:59;;;;;;;2.50;1.50;;;2.30;99.90;;;;;;5053559;28;20811;-61
2021/12/05 06:15:30;;;;;;;3.20;1.75;;;2.40;99.90;;;;;;5062535;28;20189;-62
2021/12/05 06:17:59;;;;;;;3.65;1.55;;;2.60;99.90;;;;;;5049124;28;20227;-61
2021/12/05 06:20:29;;;;;;;4.00;2.67;;;2.60;99.90;;;;;;5053522;28;20234;-61
2021/12/05 06:23:00;;;;;;;5.35;1.58;;;2.80;99.90;;;;;;5059343;28;20720;-61
2021/12/05 06:25:31;;;;;;;3.95;2.15;;;3.00;99.90;;;;;;5068158;28;20199;-61
2021/12/05 06:28:05;;;;;;;2.85;2.45;;;2.90;99.90;;;;;;5065306;28;20625;-62
2021/12/05 06:30:45;;;;;;;2.65;1.90;;;2.80;99.90;;;;;;5052403;28;20242;-62
2021/12/05 06:39:15;;;;;;;3.03;1.63;;;2.40;99.90;;;;;;5037691;28;20223;-61
2021/12/05 06:47:20;;;;;;;4.95;1.20;;;2.00;99.90;;;;;;5061395;28;20183;-62
2021/12/05 06:49:48;;;;;;;2.08;1.30;;;2.10;99.90;;;;;;5065735;28;20643;-62
2021/12/05 06:52:36;;;;;;;5.45;1.77;;;2.10;99.90;;;;;;5058525;28;20571;-61
2021/12/05 06:55:05;;;;;;;2.05;1.38;;;2.10;99.90;;;;;;5062486;28;20196;-62
2021/12/05 06:57:35;;;;;;;3.53;1.90;;;2.00;99.90;;;;;;5060394;28;20211;-61
2021/12/05 07:00:07;;;;;;;4.10;3.00;;;2.00;99.90;;;;;;5055740;28;20181;-62
2021/12/05 07:02:36;;;;;;;5.65;2.75;;;2.20;99.90;;;;;;5072823;28;20296;-62
2021/12/05 07:05:38;;;;;;;3.00;2.03;;;2.40;99.90;;;;;;5071573;28;20187;-62
2021/12/05 07:08:08;;;;;;;7.65;2.25;;;2.50;99.90;;;;;;5053924;28;20223;-61
2021/12/05 07:10:42;;;;;;;5.88;2.45;;;2.60;99.90;;;;;;5070458;28;20192;-61
2021/12/05 07:16:08;;;;;;;4.00;2.75;;;2.90;99.90;;;;;;5062106;28;20646;-62
2021/12/05 07:18:49;;;;;;;5.60;3.70;;;3.00;99.90;;;;;;5072638;28;20615;-61
2021/12/05 07:21:37;;;;;;;4.47;3.38;;;3.20;99.90;;;;;;5072506;28;20287;-61
2021/12/05 07:24:19;;;;;;;4.25;2.70;;;3.30;99.90;;;;;;5057317;28;20693;-62
2021/12/05 07:40:44;;;;;;;2.33;1.90;;;3.80;99.90;;;;;;5058851;28;20184;-62
2021/12/05 07:43:17;;;;;;;6.68;3.05;;;3.90;99.90;;;;;;5053850;28;20303;-62
2021/12/05 07:45:52;;;;;;;3.75;2.00;;;4.00;99.90;;;;;;5062523;28;20196;-62
2021/12/05 07:48:25;;;;;;;6.25;1.83;;;4.00;99.90;;;;;;5072922;28;20559;-62
2021/12/05 07:51:07;;;;;;;4.35;3.00;;;4.10;99.90;;;;;;5053701;28;20207;-61
2021/12/05 07:53:45;;;;;;;5.53;2.80;;;4.10;99.90;;;;;;5053345;28;20231;-62
2021/12/05 07:56:19;;;;;;;4.10;2.78;;;4.20;99.90;;;;;;5059683;28;20188;-61
2021/12/05 07:59:08;;;;;;;5.15;2.70;;;4.30;99.90;;;;;;5061223;28;20231;-62
2021/12/05 08:15:46;;;;;;;6.50;2.33;;;4.50;99.90;;;;;;5010506;28;20664;-63
2021/12/05 08:18:14;;;;;;;5.25;2.22;;;4.50;99.90;;;;;;5010487;28;20259;-61
2021/12/05 08:20:44;;;;;;;4.05;2.65;;;4.50;99.90;;;;;;5035431;28;20543;-61
2021/12/05 08:23:16;;;;;;;3.90;2.55;;;4.70;99.90;;;;;;5056937;28;20207;-62
2021/12/05 08:25:52;;;;;;;2.83;2.45;;;4.70;99.90;;;;;;5056944;28;20195;-61
2021/12/05 08:28:24;;;;;;;2.80;2.13;;;4.70;99.90;;;;;;5061844;28;20219;-62
2021/12/05 08:31:05;;;;;;;3.40;2.20;;;4.60;99.90;;;;;;5052818;28;20200;-62
2021/12/05 08:33:45;;;;;;;4.22;2.53;;;4.60;99.90;;;;;;5052304;28;20709;-62
2021/12/05 09:29:43;;;;;;;2.10;1.58;;;5.40;99.90;;;;;;5031034;28;20660;-61
2021/12/05 09:52:21;;;;;;;2.97;2.08;;;5.60;99.90;;;;;;5069449;28;20192;-62
2021/12/05 10:03:12;;;;;;;5.57;1.42;;;5.70;99.90;;;;;;5068163;28;20290;-58
2021/12/05 10:11:30;;;;;;;2.67;1.00;;;5.70;99.90;;;;;;5059987;28;20245;-58
2021/12/05 10:14:18;;;;;;;3.35;1.23;;;5.70;99.90;;;;;;5059271;28;20219;-59
2021/12/05 10:17:11;;;;;;;3.35;1.33;;;5.70;99.90;;;;;;5055940;28;20208;-60
2021/12/05 10:34:20;;;;;;;3.40;1.30;;;5.80;99.90;;;;;;5058557;28;20321;-59
2021/12/05 10:37:12;;;;;;;2.03;1.55;;;5.80;99.90;;;;;;5066026;28;20234;-59
2021/12/05 10:39:41;;;;;;;4.57;1.08;;;5.80;99.90;;;;;;5056938;28;20586;-58
2021/12/05 10:42:35;;;;;;;2.83;1.27;;;5.70;99.90;;;;;;5063178;28;20203;-59
2021/12/05 10:45:05;;;;;;;2.65;1.13;;;5.70;99.90;;;;;;5068828;28;20193;-58
2021/12/05 10:47:38;;;;;;;2.75;1.50;;;5.80;99.90;;;;;;5063030;28;20220;-59
2021/12/05 10:50:34;;;;;;;2.55;1.27;;;5.80;99.90;;;;;;5074874;28;20200;-62
2021/12/05 10:53:27;;;;;;;6.50;2.00;;;5.90;99.90;;;;;;5062362;28;20221;-61
2021/12/05 10:55:59;;;;;;;3.20;1.33;;;5.90;99.90;;;;;;5055676;28;20192;-62
2021/12/05 10:58:35;;;;;;;1.98;1.00;;;5.80;99.90;;;;;;5062600;28;20225;-62
2021/12/05 11:01:20;;;;;;;6.53;1.15;;;5.80;99.90;;;;;;5057845;28;20197;-62
2021/12/05 11:03:53;;;;;;;2.15;1.05;;;5.70;99.90;;;;;;5054909;28;20577;-61
2021/12/05 11:06:29;;;;;;;11.30;1.88;;;5.70;99.90;;;;;;5068136;28;20195;-62
2021/12/05 11:09:02;;;;;;;3.50;1.48;;;5.70;99.90;;;;;;5065855;28;20219;-62
2021/12/05 11:11:31;;;;;;;1.65;1.40;;;5.70;99.90;;;;;;5065066;28;20198;-62
2021/12/05 11:14:02;;;;;;;5.30;1.30;;;5.90;99.90;;;;;;5069103;28;20212;-62
2021/12/05 11:16:44;;;;;;;3.38;2.40;;;5.90;99.90;;;;;;5073730;28;20325;-61
2021/12/05 11:19:16;;;;;;;1.55;1.27;;;5.90;99.90;;;;;;5073224;28;20224;-61
2021/12/05 11:21:49;;;;;;;1.40;1.10;;;6.00;99.90;;;;;;5064865;28;20516;-61
2021/12/05 11:24:27;;;;;;;1.83;1.00;;;6.00;99.90;;;;;;5054204;28;20239;-62
2021/12/05 11:27:17;;;;;;;2.08;1.42;;;6.00;99.90;;;;;;5066053;28;20191;-61
2021/12/05 11:29:57;;;;;;;3.65;1.95;;;6.00;99.90;;;;;;5056065;28;20217;-62
2021/12/05 11:32:35;;;;;;;6.22;1.98;;;5.90;99.90;;;;;;5054368;28;20224;-62
2021/12/05 11:35:20;;;;;;;4.00;1.17;;;6.00;99.90;;;;;;5069907;28;20207;-61
2021/12/05 11:37:50;;;;;;;2.85;1.40;;;6.00;99.90;;;;;;5057975;28;20278;-62
2021/12/05 11:40:20;;;;;;;2.50;1.70;;;6.00;99.90;;;;;;5059478;28;20191;-61
2021/12/05 11:42:59;;;;;;;3.55;1.67;;;6.00;99.90;;;;;;5065256;28;20241;-61
2021/12/05 11:45:28;;;;;;;4.63;1.35;;;6.00;99.90;;;;;;5057954;28;20191;-62
2021/12/05 11:47:58;;;;;;;5.05;1.30;;;6.00;99.90;;;;;;5072429;28;20228;-61
2021/12/05 11:50:38;;;;;;;3.08;1.67;;;6.10;99.90;;;;;;5063535;28;20279;-62
2021/12/05 11:53:06;;;;;;;2.17;1.65;;;6.30;99.90;;;;;;5070390;28;20266;-61
2021/12/05 11:55:35;;;;;;;2.03;1.40;;;6.40;99.90;;;;;;5071062;28;20288;-62
2021/12/05 11:58:16;;;;;;;4.57;2.13;;;6.20;99.90;;;;;;5067162;28;20217;-62
2021/12/05 12:00:45;;;;;;;3.13;1.10;;;6.20;99.90;;;;;;5053938;28;20208;-62
2021/12/05 12:03:13;;;;;;;3.22;1.60;;;6.30;99.90;;;;;;5068202;28;20693;-62
2021/12/05 12:05:41;;;;;;;4.38;1.60;;;6.20;99.90;;;;;;5087587;28;20544;-61
2021/12/05 12:08:15;;;;;;;3.33;2.20;;;6.00;99.90;;;;;;5065721;28;20260;-61
2021/12/05 12:10:48;;;;;;;3.05;1.70;;;6.10;99.90;;;;;;5060270;28;20189;-62
2021/12/05 12:13:23;;;;;;;1.23;1.05;;;6.10;99.90;;;;;;5057044;28;20217;-60
2021/12/05 12:15:58;;;;;;;2.53;1.23;;;6.20;99.90;;;;;;5063532;28;20249;-61
2021/12/05 12:18:32;;;;;;;4.05;1.25;;;6.10;99.90;;;;;;5064007;28;20749;-62
2021/12/05 12:21:04;;;;;;;1.80;1.10;;;6.10;99.90;;;;;;5061471;28;20263;-61
2021/12/05 12:23:32;;;;;;;2.60;1.02;;;6.00;99.90;;;;;;5062254;28;20295;-62
2021/12/05 12:26:05;;;;;;;2.58;0.95;;;6.00;99.90;;;;;;5071076;28;20196;-62
2021/12/05 12:28:34;;;;;;;1.70;1.30;;;6.00;99.90;;;;;;5058193;28;20212;-61
2021/12/05 12:31:07;;;;;;;2.75;1.00;;;6.00;99.90;;;;;;5068070;28;20234;-61
2021/12/05 12:33:40;;;;;;;3.63;1.50;;;5.90;99.90;;;;;;5063958;28;20216;-61
2021/12/05 12:36:08;;;;;;;1.50;1.40;;;5.90;99.90;;;;;;5071030;28;20238;-62
2021/12/05 12:38:40;;;;;;;1.25;0.90;;;5.90;99.90;;;;;;5064752;28;20220;-62
2021/12/05 12:41:17;;;;;;;1.42;1.02;;;6.00;99.90;;;;;;5052011;28;20195;-61
2021/12/05 12:43:52;;;;;;;1.35;1.23;;;5.90;99.90;;;;;;5062233;28;20211;-61
2021/12/05 12:46:33;;;;;;;1.90;1.20;;;6.00;99.90;;;;;;5059371;28;20196;-61
2021/12/05 12:49:26;;;;;;;2.30;1.50;;;6.00;99.90;;;;;;5071421;28;20711;-62
2021/12/05 12:51:58;;;;;;;2.58;1.50;;;6.00;99.90;;;;;;5071030;28;20191;-61
2021/12/05 12:54:29;;;;;;;1.33;1.17;;;6.00;99.90;;;;;;5056203;28;20209;-62
2021/12/05 12:57:08;;;;;;;2.03;1.67;;;6.00;99.90;;;;;;5052460;28;20224;-62
2021/12/05 12:59:42;;;;;;;1.88;0.98;;;6.00;99.90;;;;;;5066799;28;20228;-62
2021/12/05 13:05:17;;;;;;;2.67;1.40;;;5.90;99.90;;;;;;5063716;28;20188;-62
2021/12/05 13:10:31;;;;;;;1.65;1.17;;;6.00;99.90;;;;;;5053294;28;20203;-61
2021/12/05 13:13:04;;;;;;;2.20;1.40;;;6.00;99.90;;;;;;5053389;28;20746;-62
2021/12/05 13:15:47;;;;;;;1.50;0.85;;;6.00;99.90;;;;;;5065563;28;20220;-61
2021/12/05 13:18:23;;;;;;;1.50;1.30;;;6.10;99.90;;;;;;5052735;28;20224;-61
2021/12/05 13:20:57;;;;;;;1.35;1.25;;;6.10;99.90;;;;;;5059818;28;20811;-61
2021/12/05 13:23:34;;;;;;;1.73;1.02;;;6.10;99.90;;;;;;5060191;28;20555;-61
2021/12/05 13:26:24;;;;;;;2.55;1.92;;;6.10;99.90;;;;;;5064276;28;20180;-62
2021/12/05 13:28:57;;;;;;;2.17;1.40;;;6.10;99.90;;;;;;5051757;28;20274;-61
2021/12/05 13:31:39;;;;;;;3.00;1.33;;;6.10;99.90;;;;;;5066899;28;20234;-62
2021/12/05 13:34:29;;;;;;;3.03;0.90;;;6.00;99.90;;;;;;5059063;28;20282;-62
2021/12/05 13:37:01;;;;;;;3.55;1.75;;;6.00;99.90;;;;;;5068150;28;20200;-61
2021/12/05 13:39:40;;;;;;;2.38;1.90;;;6.00;99.90;;;;;;5070598;28;20227;-61
2021/12/05 13:42:12;;;;;;;1.05;0.85;;;6.10;99.90;;;;;;5055788;28;20273;-62
2021/12/05 13:45:08;;;;;;;1.58;1.10;;;6.00;99.90;;;;;;5059151;28;20197;-62
2021/12/05 13:47:42;;;;;;;2.15;0.88;;;6.00;99.90;;;;;;5052248;28;20224;-62
2021/12/05 13:50:30;;;;;;;1.50;0.90;;;5.90;99.90;;;;;;5059358;28;20577;-62
2021/12/05 13:53:15;;;;;;;2.10;1.05;;;5.90;99.90;;;;;;5050785;28;20214;-62
2021/12/05 13:55:44;;;;;;;3.72;0.85;;;5.90;99.90;;;;;;5056354;28;20235;-62
2021/12/05 13:58:23;;;;;;;3.00;1.35;;;6.00;99.90;;;;;;5066846;28;20826;-62
2021/12/05 14:00:58;;;;;;;1.23;1.02;;;5.90;99.90;;;;;;5060879;28;20204;-62
2021/12/05 14:03:51;;;;;;;2.33;1.42;;;5.90;99.90;;;;;;5066059;28;20216;-62
2021/12/05 14:06:31;;;;;;;1.67;0.52;;;6.00;99.90;;;;;;5053242;28;20196;-61
2021/12/05 14:09:08;;;;;;;1.33;1.00;;;6.00;99.90;;;;;;5059403;28;20221;-61
2021/12/05 14:11:42;;;;;;;3.35;1.05;;;5.90;99.90;;;;;;5063552;28;20188;-60
2021/12/05 14:14:11;;;;;;;1.33;1.00;;;5.90;99.90;;;;;;5064911;28;20265;-62
2021/12/05 14:16:44;;;;;;;1.10;0.70;;;5.90;99.90;;;;;;5062717;28;20189;-62
2021/12/05 14:19:14;;;;;;;2.63;1.67;;;5.90;99.90;;;;;;5062071;28;20247;-62
2021/12/05 14:21:45;;;;;;;3.22;1.70;;;6.00;99.90;;;;;;5068266;28;20191;-61
2021/12/05 14:24:15;;;;;;;3.03;1.90;;;5.90;99.90;;;;;;5050161;28;20221;-62
2021/12/05 14:26:43;;;;;;;3.35;1.85;;;5.90;99.90;;;;;;5056027;28;20180;-62
2021/12/05 14:29:14;;;;;;;4.07;2.15;;;5.90;99.90;;;;;;5055841;28;20221;-62
2021/12/05 14:31:49;;;;;;;2.08;1.70;;;5.80;99.90;;;;;;5052461;28;20192;-63
2021/12/05 14:34:18;;;;;;;2.65;1.70;;;5.80;99.90;;;;;;5062354;28;20217;-62
2021/12/05 14:36:49;;;;;;;5.05;2.08;;;5.80;99.90;;;;;;5062428;28;20196;-61
2021/12/05 14:39:22;;;;;;;1.98;1.80;;;5.60;99.90;;;;;;5060990;28;20350;-61
2021/12/05 14:41:53;;;;;;;4.22;2.10;;;5.50;99.90;;;;;;5050916;28;20220;-61
2021/12/05 14:44:22;;;;;;;2.75;1.88;;;5.50;99.90;;;;;;5059970;28;20332;-62
2021/12/05 14:46:56;;;;;;;2.95;2.30;;;5.40;99.90;;;;;;5058395;28;20720;-61
2021/12/05 14:49:27;;;;;;;3.38;2.90;;;5.40;99.90;;;;;;5055013;28;20222;-61
2021/12/05 14:51:56;;;;;;;2.85;2.55;;;5.40;99.90;;;;;;5062522;28;20540;-62
2021/12/05 14:54:32;;;;;;;3.38;2.40;;;5.30;99.90;;;;;;5066788;28;20686;-61
2021/12/05 14:57:06;;;;;;;5.00;2.50;;;5.30;99.90;;;;;;5061003;28;20193;-61
2021/12/05 14:59:35;;;;;;;2.78;2.40;;;5.20;99.90;;;;;;5056545;28;20751;-61
2021/12/05 15:02:06;;;;;;;4.13;2.88;;;5.20;99.90;;;;;;5064419;28;20187;-62
2021/12/05 15:04:38;;;;;;;2.65;2.45;;;5.20;99.90;;;;;;5066479;28;20199;-61
2021/12/05 15:07:07;;;;;;;3.25;2.70;;;5.20;99.90;;;;;;5067962;28;20245;-62
2021/12/05 15:09:39;;;;;;;2.20;2.00;;;5.20;99.90;;;;;;5055773;28;20222;-62
2021/12/05 15:12:12;;;;;;;3.83;3.08;;;5.20;99.90;;;;;;5053701;28;20195;-61
2021/12/05 15:14:43;;;;;;;3.75;2.72;;;5.10;99.90;;;;;;5069425;28;20196;-61
2021/12/05 15:17:15;;;;;;;3.75;2.45;;;5.10;99.90;;;;;;5054928;28;20242;-62
2021/12/05 15:19:47;;;;;;;2.85;2.50;;;5.10;99.90;;;;;;5070229;28;20239;-61
2021/12/05 15:22:36;;;;;;;3.92;2.08;;;5.00;99.90;;;;;;5064920;28;20220;-61
2021/12/05 15:25:07;;;;;;;2.67;2.20;;;5.10;99.90;;;;;;5055075;28;20200;-62
2021/12/05 15:27:38;;;;;;;2.53;2.22;;;5.00;99.90;;;;;;5053581;28;20274;-61
2021/12/05 15:30:09;;;;;;;4.28;3.38;;;4.90;99.90;;;;;;5067433;28;20222;-62
2021/12/05 15:32:39;;;;;;;3.38;2.47;;;4.90;99.90;;;;;;5064745;28;20690;-61
2021/12/05 15:35:10;;;;;;;3.45;2.90;;;4.90;99.90;;;;;;5056547;28;20199;-62
2021/12/05 15:37:45;;;;;;;5.78;2.83;;;4.90;99.90;;;;;;5056955;28;20270;-62
2021/12/05 15:40:14;;;;;;;3.60;3.13;;;4.90;99.90;;;;;;5053850;28;20197;-61
2021/12/05 15:42:42;;;;;;;2.75;2.50;;;4.90;99.90;;;;;;5055136;28;20208;-61
2021/12/05 15:45:15;;;;;;;3.60;2.95;;;4.90;99.90;;;;;;5065095;28;20242;-62
2021/12/05 15:47:46;;;;;;;4.32;2.60;;;4.90;99.90;;;;;;5063791;28;20227;-61
2021/12/05 15:50:15;;;;;;;3.35;2.90;;;4.80;99.90;;;;;;5067399;28;20196;-62
2021/12/05 15:52:47;;;;;;;3.78;2.72;;;4.80;99.90;;;;;;5063122;28;20212;-63
2021/12/05 15:55:20;;;;;;;5.15;4.13;;;4.80;99.90;;;;;;5053400;28;20647;-62
2021/12/05 15:57:51;;;;;;;3.83;3.53;;;4.70;99.90;;;;;;5063460;28;20219;-63
2021/12/05 16:00:24;;;;;;;4.20;3.72;;;4.80;99.90;;;;;;5072980;28;20220;-62
2021/12/05 16:03:03;;;;;;;5.47;3.45;;;4.80;99.90;;;;;;5072645;28;20220;-62
2021/12/05 16:05:33;;;;;;;5.68;3.75;;;4.80;99.90;;;;;;5065359;28;21002;-62
2021/12/05 16:08:04;;;;;;;3.97;3.33;;;4.80;99.90;;;;;;5062764;28;20220;-62
2021/12/05 16:10:34;;;;;;;4.55;3.30;;;4.90;99.90;;;;;;5053287;28;20550;-61
2021/12/05 16:13:10;;;;;;;4.10;3.78;;;4.90;99.90;;;;;;5062172;28;20271;-61
2021/12/05 16:15:40;;;;;;;5.53;4.55;;;4.80;99.90;;;;;;5052661;28;20250;-61
2021/12/05 16:18:10;;;;;;;7.93;4.65;;;4.80;99.90;;;;;;5052624;28;20598;-62
2021/12/05 16:20:42;;;;;;;9.68;6.32;;;4.80;99.90;;;;;;5053204;28;20212;-61
2021/12/05 16:23:22;;;;;;;10.00;7.20;;;4.80;99.90;;;;;;5053284;28;20225;-62
2021/12/05 16:26:01;;;;;;;7.75;5.65;;;4.80;99.90;;;;;;5071048;28;20231;-60
2021/12/05 16:28:32;;;;;;;5.25;4.85;;;4.70;99.90;;;;;;5064669;28;20250;-62
2021/12/05 16:31:06;;;;;;;7.05;4.20;;;4.60;99.90;;;;;;5053042;28;20196;-62
2021/12/05 16:33:41;;;;;;;4.93;4.43;;;4.60;99.90;;;;;;5052241;28;20251;-62
2021/12/05 16:36:10;;;;;;;4.95;3.50;;;4.60;99.90;;;;;;5052672;28;20228;-61
2021/12/05 16:38:40;;;;;;;6.05;3.10;;;4.50;99.90;;;;;;5065338;28;20242;-62
2021/12/05 16:41:22;;;;;;;3.75;3.35;;;4.60;99.90;;;;;;5059644;28;20188;-61
2021/12/05 16:43:58;;;;;;;4.22;3.83;;;4.60;99.90;;;;;;5061232;28;20219;-62
2021/12/05 16:46:31;;;;;;;3.20;2.90;;;4.70;99.90;;;;;;5072703;28;20552;-61
2021/12/05 16:49:04;;;;;;;3.95;2.92;;;4.60;99.90;;;;;;5071623;28;20273;-62
2021/12/05 16:51:36;;;;;;;6.30;3.70;;;4.60;99.90;;;;;;5071301;28;20795;-62
2021/12/05 16:54:16;;;;;;;4.05;3.42;;;4.40;99.90;;;;;;5063856;28;20269;-63
2021/12/05 16:56:49;;;;;;;5.88;4.38;;;4.30;99.90;;;;;;5072477;28;20196;-62
2021/12/05 16:59:22;;;;;;;7.18;3.13;;;4.30;99.90;;;;;;5069357;28;20212;-61
2021/12/05 17:02:10;;;;;;;4.25;3.47;;;4.30;99.90;;;;;;5071903;28;20195;-62
2021/12/05 17:04:57;;;;;;;4.07;3.35;;;4.30;99.90;;;;;;5063273;28;20270;-62
2021/12/05 17:07:40;;;;;;;3.50;3.20;;;4.30;99.90;;;;;;5054797;28;20246;-62
2021/12/05 17:10:12;;;;;;;4.03;3.60;;;4.20;99.90;;;;;;5058255;28;20196;-61
2021/12/05 17:12:40;;;;;;;4.35;3.95;;;4.20;99.90;;;;;;5058147;28;20224;-62
2021/12/05 17:15:19;;;;;;;9.77;3.90;;;4.20;99.90;;;;;;5071176;28;20234;-61
2021/12/05 17:17:49;;;;;;;4.82;3.67;;;4.20;99.90;;;;;;5057965;28;20301;-62
2021/12/05 17:20:26;;;;;;;5.40;4.60;;;4.00;99.90;;;;;;5065336;28;20187;-61
2021/12/05 17:22:58;;;;;;;4.40;3.55;;;3.80;99.90;;;;;;5071286;28;20219;-62
2021/12/05 17:25:31;;;;;;;9.27;3.85;;;3.80;99.90;;;;;;5069020;28;20192;-62
2021/12/05 17:28:02;;;;;;;5.60;4.82;;;3.80;99.90;;;;;;5051487;28;20216;-62
2021/12/05 17:30:30;;;;;;;8.05;4.85;;;3.90;99.90;;;;;;5055096;28;20594;-62
2021/12/05 17:32:59;;;;;;;5.78;5.15;;;3.90;99.90;;;;;;5051463;28;20228;-62
2021/12/05 17:35:30;;;;;;;5.38;4.00;;;3.90;99.90;;;;;;5066316;28;20191;-61
2021/12/05 17:37:58;;;;;;;6.35;5.00;;;3.90;99.90;;;;;;5059867;28;20234;-62
2021/12/05 17:40:32;;;;;;;5.95;4.90;;;3.90;99.90;;;;;;5069369;28;20216;-61
2021/12/05 17:43:01;;;;;;;7.35;4.75;;;3.90;99.90;;;;;;5055522;28;20220;-62
2021/12/05 17:45:37;;;;;;;5.72;4.40;;;4.00;99.90;;;;;;5071329;28;20200;-62